sensor_id;sensor_type;location;lat;lon;timestamp;P1;durP1;ratioP1;P2;durP2;ratioP2
47669;SDS011;33408;52.062;11.722;2023-04-24T00:02:20;6.72;;;3.88;;
47669;SDS011;33408;52.062;11.722;2023-04-24T00:04:47;8.30;;;4.47;;
47669;SDS011;33408;52.062;11.722;2023-04-24T00:07:14;6.47;;;4.35;;
47669;SDS011;33408;52.062;11.722;2023-04-24T00:09:42;7.55;;;4.15;;
47669;SDS011;33408;52.062;11.722;2023-04-24T00:12:08;7.03;;;3.70;;
47669;SDS011;33408;52.062;11.722;2023-04-24T00:14:37;6.70;;;4.13;;
47669;SDS011;33408;52.062;11.722;2023-04-24T00:17:04;6.88;;;3.75;;
47669;SDS011;33408;52.062;11.722;2023-04-24T00:19:30;8.40;;;3.92;;
47669;SDS011;33408;52.062;11.722;2023-04-24T00:21:57;9.05;;;4.45;;
47669;SDS011;33408;52.062;11.722;2023-04-24T00:24:23;8.70;;;4.30;;
47669;SDS011;33408;52.062;11.722;2023-04-24T00:26:50;8.73;;;3.78;;
47669;SDS011;33408;52.062;11.722;2023-04-24T00:29:16;7.43;;;4.05;;
47669;SDS011;33408;52.062;11.722;2023-04-24T00:31:44;8.77;;;3.92;;
47669;SDS011;33408;52.062;11.722;2023-04-24T00:34:11;9.10;;;3.58;;
47669;SDS011;33408;52.062;11.722;2023-04-24T00:36:38;6.60;;;3.55;;
47669;SDS011;33408;52.062;11.722;2023-04-24T00:39:05;6.90;;;3.72;;
47669;SDS011;33408;52.062;11.722;2023-04-24T00:41:33;6.70;;;3.30;;
47669;SDS011;33408;52.062;11.722;2023-04-24T00:44:00;6.55;;;2.83;;
47669;SDS011;33408;52.062;11.722;2023-04-24T00:46:26;5.10;;;2.78;;
47669;SDS011;33408;52.062;11.722;2023-04-24T00:48:55;5.10;;;2.42;;
47669;SDS011;33408;52.062;11.722;2023-04-24T00:51:22;7.25;;;3.10;;
47669;SDS011;33408;52.062;11.722;2023-04-24T00:53:49;6.93;;;3.00;;
47669;SDS011;33408;52.062;11.722;2023-04-24T00:56:16;4.88;;;2.60;;
47669;SDS011;33408;52.062;11.722;2023-04-24T00:58:43;4.63;;;2.30;;
47669;SDS011;33408;52.062;11.722;2023-04-24T01:01:10;3.92;;;1.77;;
47669;SDS011;33408;52.062;11.722;2023-04-24T01:03:37;6.00;;;1.83;;
47669;SDS011;33408;52.062;11.722;2023-04-24T01:06:06;2.70;;;1.27;;
47669;SDS011;33408;52.062;11.722;2023-04-24T01:08:33;2.70;;;1.50;;
47669;SDS011;33408;52.062;11.722;2023-04-24T01:11:02;2.28;;;1.08;;
47669;SDS011;33408;52.062;11.722;2023-04-24T01:13:29;3.28;;;1.30;;
47669;SDS011;33408;52.062;11.722;2023-04-24T01:15:57;6.03;;;1.30;;
47669;SDS011;33408;52.062;11.722;2023-04-24T01:18:25;3.88;;;1.38;;
47669;SDS011;33408;52.062;11.722;2023-04-24T01:20:53;4.05;;;1.45;;
47669;SDS011;33408;52.062;11.722;2023-04-24T01:23:24;2.47;;;0.95;;
47669;SDS011;33408;52.062;11.722;2023-04-24T01:25:51;1.90;;;1.00;;
47669;SDS011;33408;52.062;11.722;2023-04-24T01:28:18;3.25;;;1.08;;
47669;SDS011;33408;52.062;11.722;2023-04-24T01:30:45;5.45;;;1.30;;
47669;SDS011;33408;52.062;11.722;2023-04-24T01:33:11;3.10;;;1.60;;
47669;SDS011;33408;52.062;11.722;2023-04-24T01:35:39;4.10;;;1.60;;
47669;SDS011;33408;52.062;11.722;2023-04-24T01:38:06;6.15;;;1.50;;
47669;SDS011;33408;52.062;11.722;2023-04-24T01:40:34;2.53;;;1.30;;
47669;SDS011;33408;52.062;11.722;2023-04-24T01:43:01;3.55;;;1.33;;
47669;SDS011;33408;52.062;11.722;2023-04-24T01:45:28;4.82;;;1.70;;
47669;SDS011;33408;52.062;11.722;2023-04-24T01:47:54;2.08;;;1.30;;
47669;SDS011;33408;52.062;11.722;2023-04-24T01:50:22;3.95;;;1.40;;
47669;SDS011;33408;52.062;11.722;2023-04-24T01:52:49;4.72;;;1.65;;
47669;SDS011;33408;52.062;11.722;2023-04-24T01:55:15;4.95;;;1.52;;
47669;SDS011;33408;52.062;11.722;2023-04-24T01:57:43;3.70;;;1.40;;
47669;SDS011;33408;52.062;11.722;2023-04-24T02:00:10;3.13;;;1.40;;
47669;SDS011;33408;52.062;11.722;2023-04-24T02:02:38;2.83;;;1.17;;
47669;SDS011;33408;52.062;11.722;2023-04-24T02:05:05;2.55;;;1.40;;
47669;SDS011;33408;52.062;11.722;2023-04-24T02:07:33;3.63;;;1.23;;
47669;SDS011;33408;52.062;11.722;2023-04-24T02:09:59;3.38;;;1.40;;
47669;SDS011;33408;52.062;11.722;2023-04-24T02:12:26;3.50;;;1.33;;
47669;SDS011;33408;52.062;11.722;2023-04-24T02:14:54;2.45;;;1.30;;
47669;SDS011;33408;52.062;11.722;2023-04-24T02:17:20;3.03;;;1.27;;
47669;SDS011;33408;52.062;11.722;2023-04-24T02:19:47;3.40;;;1.50;;
47669;SDS011;33408;52.062;11.722;2023-04-24T02:22:14;2.90;;;1.52;;
47669;SDS011;33408;52.062;11.722;2023-04-24T02:24:41;4.88;;;1.40;;
47669;SDS011;33408;52.062;11.722;2023-04-24T02:27:08;4.13;;;1.85;;
47669;SDS011;33408;52.062;11.722;2023-04-24T02:29:36;4.03;;;1.70;;
47669;SDS011;33408;52.062;11.722;2023-04-24T02:32:04;7.10;;;1.92;;
47669;SDS011;33408;52.062;11.722;2023-04-24T02:34:30;3.05;;;1.58;;
47669;SDS011;33408;52.062;11.722;2023-04-24T02:36:57;5.28;;;2.00;;
47669;SDS011;33408;52.062;11.722;2023-04-24T02:39:24;4.80;;;1.70;;
47669;SDS011;33408;52.062;11.722;2023-04-24T02:41:51;5.88;;;2.13;;
47669;SDS011;33408;52.062;11.722;2023-04-24T02:44:17;2.88;;;1.38;;
47669;SDS011;33408;52.062;11.722;2023-04-24T02:46:44;5.15;;;1.70;;
47669;SDS011;33408;52.062;11.722;2023-04-24T02:49:12;4.18;;;1.98;;
47669;SDS011;33408;52.062;11.722;2023-04-24T02:51:38;3.85;;;1.50;;
47669;SDS011;33408;52.062;11.722;2023-04-24T02:54:06;5.80;;;1.70;;
47669;SDS011;33408;52.062;11.722;2023-04-24T02:56:33;4.32;;;1.52;;
47669;SDS011;33408;52.062;11.722;2023-04-24T02:58:59;4.57;;;1.83;;
47669;SDS011;33408;52.062;11.722;2023-04-24T03:01:26;3.75;;;1.83;;
47669;SDS011;33408;52.062;11.722;2023-04-24T03:03:53;4.22;;;1.73;;
47669;SDS011;33408;52.062;11.722;2023-04-24T03:06:20;5.68;;;1.80;;
47669;SDS011;33408;52.062;11.722;2023-04-24T03:08:47;3.45;;;1.65;;
47669;SDS011;33408;52.062;11.722;2023-04-24T03:11:14;3.13;;;1.80;;
47669;SDS011;33408;52.062;11.722;2023-04-24T03:13:41;2.83;;;1.58;;
47669;SDS011;33408;52.062;11.722;2023-04-24T03:16:07;4.18;;;1.65;;
47669;SDS011;33408;52.062;11.722;2023-04-24T03:18:34;4.88;;;1.85;;
47669;SDS011;33408;52.062;11.722;2023-04-24T03:21:00;10.43;;;2.00;;
47669;SDS011;33408;52.062;11.722;2023-04-24T03:23:29;4.63;;;2.08;;
47669;SDS011;33408;52.062;11.722;2023-04-24T03:25:56;4.68;;;2.20;;
47669;SDS011;33408;52.062;11.722;2023-04-24T03:28:23;4.85;;;2.15;;
47669;SDS011;33408;52.062;11.722;2023-04-24T03:30:50;4.63;;;1.95;;
47669;SDS011;33408;52.062;11.722;2023-04-24T03:33:17;5.03;;;2.40;;
47669;SDS011;33408;52.062;11.722;2023-04-24T03:35:43;4.07;;;2.05;;
47669;SDS011;33408;52.062;11.722;2023-04-24T03:38:10;5.32;;;1.80;;
47669;SDS011;33408;52.062;11.722;2023-04-24T03:40:38;3.72;;;1.92;;
47669;SDS011;33408;52.062;11.722;2023-04-24T03:43:04;7.05;;;1.90;;
47669;SDS011;33408;52.062;11.722;2023-04-24T03:45:31;3.72;;;1.85;;
47669;SDS011;33408;52.062;11.722;2023-04-24T03:47:57;4.07;;;1.73;;
47669;SDS011;33408;52.062;11.722;2023-04-24T03:50:24;5.55;;;2.55;;
47669;SDS011;33408;52.062;11.722;2023-04-24T03:52:51;5.75;;;2.13;;
47669;SDS011;33408;52.062;11.722;2023-04-24T03:55:18;3.60;;;1.80;;
47669;SDS011;33408;52.062;11.722;2023-04-24T03:57:46;6.68;;;2.22;;
47669;SDS011;33408;52.062;11.722;2023-04-24T04:00:12;6.90;;;2.13;;
47669;SDS011;33408;52.062;11.722;2023-04-24T04:02:40;5.97;;;1.55;;
47669;SDS011;33408;52.062;11.722;2023-04-24T04:05:06;5.55;;;2.13;;
47669;SDS011;33408;52.062;11.722;2023-04-24T04:07:33;4.10;;;1.90;;
47669;SDS011;33408;52.062;11.722;2023-04-24T04:10:00;3.53;;;1.60;;
47669;SDS011;33408;52.062;11.722;2023-04-24T04:12:26;4.13;;;1.95;;
47669;SDS011;33408;52.062;11.722;2023-04-24T04:14:55;4.07;;;2.08;;
47669;SDS011;33408;52.062;11.722;2023-04-24T04:17:21;3.47;;;1.70;;
47669;SDS011;33408;52.062;11.722;2023-04-24T04:19:48;5.45;;;1.77;;
47669;SDS011;33408;52.062;11.722;2023-04-24T04:22:14;4.93;;;1.55;;
47669;SDS011;33408;52.062;11.722;2023-04-24T04:24:41;4.82;;;1.98;;
47669;SDS011;33408;52.062;11.722;2023-04-24T04:27:08;4.45;;;1.98;;
47669;SDS011;33408;52.062;11.722;2023-04-24T04:29:34;4.75;;;1.83;;
47669;SDS011;33408;52.062;11.722;2023-04-24T04:32:02;4.57;;;1.98;;
47669;SDS011;33408;52.062;11.722;2023-04-24T04:34:29;3.33;;;1.67;;
47669;SDS011;33408;52.062;11.722;2023-04-24T04:36:56;4.57;;;1.83;;
47669;SDS011;33408;52.062;11.722;2023-04-24T04:39:26;5.70;;;2.63;;
47669;SDS011;33408;52.062;11.722;2023-04-24T04:41:53;5.43;;;2.58;;
47669;SDS011;33408;52.062;11.722;2023-04-24T04:44:19;9.20;;;3.35;;
47669;SDS011;33408;52.062;11.722;2023-04-24T04:46:46;9.02;;;4.20;;
47669;SDS011;33408;52.062;11.722;2023-04-24T04:49:14;4.40;;;2.50;;
47669;SDS011;33408;52.062;11.722;2023-04-24T04:51:41;4.68;;;2.05;;
47669;SDS011;33408;52.062;11.722;2023-04-24T04:54:08;3.40;;;1.30;;
47669;SDS011;33408;52.062;11.722;2023-04-24T04:56:34;5.25;;;1.95;;
47669;SDS011;33408;52.062;11.722;2023-04-24T04:59:01;3.08;;;1.55;;
47669;SDS011;33408;52.062;11.722;2023-04-24T05:01:28;5.10;;;1.83;;
47669;SDS011;33408;52.062;11.722;2023-04-24T05:03:54;4.60;;;1.63;;
47669;SDS011;33408;52.062;11.722;2023-04-24T05:06:22;5.70;;;1.75;;
47669;SDS011;33408;52.062;11.722;2023-04-24T05:08:49;4.22;;;1.80;;
47669;SDS011;33408;52.062;11.722;2023-04-24T05:11:16;7.15;;;2.00;;
47669;SDS011;33408;52.062;11.722;2023-04-24T05:13:42;4.85;;;1.77;;
47669;SDS011;33408;52.062;11.722;2023-04-24T05:16:09;5.10;;;1.65;;
47669;SDS011;33408;52.062;11.722;2023-04-24T05:18:36;4.93;;;1.77;;
47669;SDS011;33408;52.062;11.722;2023-04-24T05:21:02;9.20;;;2.40;;
47669;SDS011;33408;52.062;11.722;2023-04-24T05:23:30;4.55;;;1.55;;
47669;SDS011;33408;52.062;11.722;2023-04-24T05:25:57;2.75;;;1.40;;
47669;SDS011;33408;52.062;11.722;2023-04-24T05:28:23;5.40;;;1.65;;
47669;SDS011;33408;52.062;11.722;2023-04-24T05:30:53;3.58;;;1.42;;
47669;SDS011;33408;52.062;11.722;2023-04-24T05:33:20;4.13;;;1.60;;
47669;SDS011;33408;52.062;11.722;2023-04-24T05:35:47;3.80;;;1.65;;
47669;SDS011;33408;52.062;11.722;2023-04-24T05:38:14;6.47;;;1.67;;
47669;SDS011;33408;52.062;11.722;2023-04-24T05:40:44;5.20;;;1.80;;
47669;SDS011;33408;52.062;11.722;2023-04-24T05:43:11;3.60;;;1.67;;
47669;SDS011;33408;52.062;11.722;2023-04-24T05:45:37;4.38;;;1.60;;
47669;SDS011;33408;52.062;11.722;2023-04-24T05:48:04;3.58;;;1.50;;
47669;SDS011;33408;52.062;11.722;2023-04-24T05:50:31;4.80;;;1.90;;
47669;SDS011;33408;52.062;11.722;2023-04-24T05:52:57;4.75;;;1.23;;
47669;SDS011;33408;52.062;11.722;2023-04-24T05:55:24;5.65;;;1.98;;
47669;SDS011;33408;52.062;11.722;2023-04-24T05:57:52;6.18;;;2.47;;
47669;SDS011;33408;52.062;11.722;2023-04-24T06:00:19;3.55;;;1.60;;
47669;SDS011;33408;52.062;11.722;2023-04-24T06:02:46;5.75;;;1.90;;
47669;SDS011;33408;52.062;11.722;2023-04-24T06:05:13;3.65;;;1.70;;
47669;SDS011;33408;52.062;11.722;2023-04-24T06:07:39;3.97;;;1.95;;
47669;SDS011;33408;52.062;11.722;2023-04-24T06:10:07;6.78;;;2.00;;
47669;SDS011;33408;52.062;11.722;2023-04-24T06:12:34;5.43;;;1.80;;
47669;SDS011;33408;52.062;11.722;2023-04-24T06:15:03;4.63;;;1.60;;
47669;SDS011;33408;52.062;11.722;2023-04-24T06:17:30;4.85;;;1.67;;
47669;SDS011;33408;52.062;11.722;2023-04-24T06:19:57;4.07;;;1.50;;
47669;SDS011;33408;52.062;11.722;2023-04-24T06:22:23;2.78;;;1.45;;
47669;SDS011;33408;52.062;11.722;2023-04-24T06:24:50;4.53;;;1.77;;
47669;SDS011;33408;52.062;11.722;2023-04-24T06:27:16;3.95;;;1.60;;
47669;SDS011;33408;52.062;11.722;2023-04-24T06:29:43;6.40;;;1.80;;
47669;SDS011;33408;52.062;11.722;2023-04-24T06:32:11;5.60;;;1.77;;
47669;SDS011;33408;52.062;11.722;2023-04-24T06:34:38;5.53;;;2.33;;
47669;SDS011;33408;52.062;11.722;2023-04-24T06:37:04;6.60;;;1.80;;
47669;SDS011;33408;52.062;11.722;2023-04-24T06:39:31;3.83;;;1.95;;
47669;SDS011;33408;52.062;11.722;2023-04-24T06:41:58;5.50;;;1.73;;
47669;SDS011;33408;52.062;11.722;2023-04-24T06:44:25;4.75;;;1.95;;
47669;SDS011;33408;52.062;11.722;2023-04-24T06:46:52;6.18;;;2.17;;
47669;SDS011;33408;52.062;11.722;2023-04-24T06:49:20;5.90;;;1.70;;
47669;SDS011;33408;52.062;11.722;2023-04-24T06:51:46;5.07;;;1.95;;
47669;SDS011;33408;52.062;11.722;2023-04-24T06:54:13;5.68;;;2.15;;
47669;SDS011;33408;52.062;11.722;2023-04-24T06:56:39;4.28;;;1.70;;
47669;SDS011;33408;52.062;11.722;2023-04-24T06:59:06;4.95;;;1.80;;
47669;SDS011;33408;52.062;11.722;2023-04-24T07:01:32;4.82;;;1.67;;
47669;SDS011;33408;52.062;11.722;2023-04-24T07:03:59;3.10;;;1.33;;
47669;SDS011;33408;52.062;11.722;2023-04-24T07:06:27;3.35;;;1.40;;
47669;SDS011;33408;52.062;11.722;2023-04-24T07:08:55;1.40;;;1.00;;
47669;SDS011;33408;52.062;11.722;2023-04-24T07:11:22;2.97;;;1.33;;
47669;SDS011;33408;52.062;11.722;2023-04-24T07:13:48;1.98;;;1.10;;
47669;SDS011;33408;52.062;11.722;2023-04-24T07:16:15;4.90;;;1.45;;
47669;SDS011;33408;52.062;11.722;2023-04-24T07:18:41;3.10;;;1.17;;
47669;SDS011;33408;52.062;11.722;2023-04-24T07:21:08;2.63;;;1.30;;
47669;SDS011;33408;52.062;11.722;2023-04-24T07:23:36;3.53;;;1.52;;
47669;SDS011;33408;52.062;11.722;2023-04-24T07:26:03;3.85;;;1.10;;
47669;SDS011;33408;52.062;11.722;2023-04-24T07:28:29;3.40;;;1.33;;
47669;SDS011;33408;52.062;11.722;2023-04-24T07:30:57;3.75;;;1.38;;
47669;SDS011;33408;52.062;11.722;2023-04-24T07:33:24;3.92;;;1.23;;
47669;SDS011;33408;52.062;11.722;2023-04-24T07:35:51;4.10;;;1.20;;
47669;SDS011;33408;52.062;11.722;2023-04-24T07:38:18;6.03;;;1.50;;
47669;SDS011;33408;52.062;11.722;2023-04-24T07:40:48;2.22;;;1.10;;
47669;SDS011;33408;52.062;11.722;2023-04-24T07:43:15;2.22;;;1.10;;
47669;SDS011;33408;52.062;11.722;2023-04-24T07:45:41;2.35;;;1.10;;
47669;SDS011;33408;52.062;11.722;2023-04-24T07:48:08;4.82;;;1.60;;
47669;SDS011;33408;52.062;11.722;2023-04-24T07:50:35;2.90;;;0.98;;
47669;SDS011;33408;52.062;11.722;2023-04-24T07:53:02;2.08;;;1.13;;
47669;SDS011;33408;52.062;11.722;2023-04-24T07:55:28;2.03;;;1.00;;
47669;SDS011;33408;52.062;11.722;2023-04-24T07:57:56;4.45;;;1.30;;
47669;SDS011;33408;52.062;11.722;2023-04-24T08:00:23;3.10;;;1.15;;
47669;SDS011;33408;52.062;11.722;2023-04-24T08:02:49;3.28;;;1.23;;
47669;SDS011;33408;52.062;11.722;2023-04-24T08:05:16;3.47;;;1.13;;
47669;SDS011;33408;52.062;11.722;2023-04-24T08:07:43;3.90;;;1.25;;
47669;SDS011;33408;52.062;11.722;2023-04-24T08:10:11;2.70;;;1.00;;
47669;SDS011;33408;52.062;11.722;2023-04-24T08:12:38;4.00;;;1.00;;
47669;SDS011;33408;52.062;11.722;2023-04-24T08:15:07;3.97;;;1.20;;
47669;SDS011;33408;52.062;11.722;2023-04-24T08:17:34;1.58;;;1.00;;
47669;SDS011;33408;52.062;11.722;2023-04-24T08:20:01;5.40;;;0.90;;
47669;SDS011;33408;52.062;11.722;2023-04-24T08:22:28;1.75;;;1.15;;
47669;SDS011;33408;52.062;11.722;2023-04-24T08:24:55;3.00;;;0.98;;
47669;SDS011;33408;52.062;11.722;2023-04-24T08:27:22;3.10;;;0.90;;
47669;SDS011;33408;52.062;11.722;2023-04-24T08:29:49;4.32;;;1.13;;
47669;SDS011;33408;52.062;11.722;2023-04-24T08:32:17;2.22;;;0.80;;
47669;SDS011;33408;52.062;11.722;2023-04-24T08:34:43;3.88;;;1.00;;
47669;SDS011;33408;52.062;11.722;2023-04-24T08:37:10;4.75;;;1.33;;
47669;SDS011;33408;52.062;11.722;2023-04-24T08:39:36;2.72;;;0.88;;
47669;SDS011;33408;52.062;11.722;2023-04-24T08:42:04;1.65;;;0.70;;
47669;SDS011;33408;52.062;11.722;2023-04-24T08:44:33;4.93;;;1.33;;
47669;SDS011;33408;52.062;11.722;2023-04-24T08:47:00;2.17;;;1.08;;
47669;SDS011;33408;52.062;11.722;2023-04-24T08:49:29;1.90;;;0.80;;
47669;SDS011;33408;52.062;11.722;2023-04-24T08:51:57;2.92;;;0.93;;
47669;SDS011;33408;52.062;11.722;2023-04-24T08:54:25;2.83;;;0.90;;
47669;SDS011;33408;52.062;11.722;2023-04-24T08:56:53;2.38;;;0.90;;
47669;SDS011;33408;52.062;11.722;2023-04-24T08:59:24;2.83;;;0.90;;
47669;SDS011;33408;52.062;11.722;2023-04-24T09:01:51;4.45;;;0.98;;
47669;SDS011;33408;52.062;11.722;2023-04-24T09:04:18;1.65;;;0.88;;
47669;SDS011;33408;52.062;11.722;2023-04-24T09:06:48;1.63;;;0.90;;
47669;SDS011;33408;52.062;11.722;2023-04-24T09:09:15;3.85;;;1.20;;
47669;SDS011;33408;52.062;11.722;2023-04-24T09:11:43;2.10;;;0.90;;
47669;SDS011;33408;52.062;11.722;2023-04-24T09:14:11;3.50;;;0.60;;
47669;SDS011;33408;52.062;11.722;2023-04-24T09:16:37;1.33;;;0.70;;
47669;SDS011;33408;52.062;11.722;2023-04-24T09:19:04;2.58;;;0.82;;
47669;SDS011;33408;52.062;11.722;2023-04-24T09:21:31;4.32;;;0.90;;
47669;SDS011;33408;52.062;11.722;2023-04-24T09:24:00;2.95;;;1.23;;
47669;SDS011;33408;52.062;11.722;2023-04-24T09:26:29;1.85;;;0.70;;
47669;SDS011;33408;52.062;11.722;2023-04-24T09:28:57;1.52;;;0.98;;
47669;SDS011;33408;52.062;11.722;2023-04-24T09:31:26;1.83;;;1.02;;
47669;SDS011;33408;52.062;11.722;2023-04-24T09:33:53;3.03;;;1.10;;
47669;SDS011;33408;52.062;11.722;2023-04-24T09:36:26;1.30;;;0.80;;
47669;SDS011;33408;52.062;11.722;2023-04-24T09:38:57;1.50;;;0.80;;
47669;SDS011;33408;52.062;11.722;2023-04-24T09:41:26;4.78;;;0.93;;
47669;SDS011;33408;52.062;11.722;2023-04-24T09:43:54;7.53;;;1.20;;
47669;SDS011;33408;52.062;11.722;2023-04-24T09:46:21;2.90;;;0.80;;
47669;SDS011;33408;52.062;11.722;2023-04-24T09:48:55;2.75;;;0.90;;
47669;SDS011;33408;52.062;11.722;2023-04-24T09:51:32;1.48;;;0.60;;
47669;SDS011;33408;52.062;11.722;2023-04-24T09:54:01;1.08;;;0.60;;
47669;SDS011;33408;52.062;11.722;2023-04-24T09:56:29;1.98;;;1.05;;
47669;SDS011;33408;52.062;11.722;2023-04-24T09:59:03;2.10;;;0.90;;
47669;SDS011;33408;52.062;11.722;2023-04-24T10:01:30;1.92;;;0.82;;
47669;SDS011;33408;52.062;11.722;2023-04-24T10:03:57;2.25;;;0.93;;
47669;SDS011;33408;52.062;11.722;2023-04-24T10:06:29;3.22;;;0.88;;
47669;SDS011;33408;52.062;11.722;2023-04-24T10:08:57;15.00;;;1.50;;
47669;SDS011;33408;52.062;11.722;2023-04-24T10:11:25;4.47;;;0.90;;
47669;SDS011;33408;52.062;11.722;2023-04-24T10:13:54;2.80;;;1.00;;
47669;SDS011;33408;52.062;11.722;2023-04-24T10:16:22;3.97;;;1.10;;
47669;SDS011;33408;52.062;11.722;2023-04-24T10:18:49;4.30;;;1.55;;
47669;SDS011;33408;52.062;11.722;2023-04-24T10:21:17;6.13;;;1.90;;
47669;SDS011;33408;52.062;11.722;2023-04-24T10:23:43;6.63;;;3.22;;
47669;SDS011;33408;52.062;11.722;2023-04-24T10:26:12;5.38;;;2.45;;
47669;SDS011;33408;52.062;11.722;2023-04-24T10:28:42;5.95;;;1.88;;
47669;SDS011;33408;52.062;11.722;2023-04-24T10:31:12;4.03;;;1.70;;
47669;SDS011;33408;52.062;11.722;2023-04-24T10:33:39;3.78;;;1.58;;
47669;SDS011;33408;52.062;11.722;2023-04-24T10:36:07;7.13;;;1.77;;
47669;SDS011;33408;52.062;11.722;2023-04-24T10:38:35;2.92;;;1.70;;
47669;SDS011;33408;52.062;11.722;2023-04-24T10:41:08;3.25;;;1.50;;
47669;SDS011;33408;52.062;11.722;2023-04-24T10:43:41;2.33;;;1.40;;
47669;SDS011;33408;52.062;11.722;2023-04-24T10:46:08;4.47;;;1.50;;
47669;SDS011;33408;52.062;11.722;2023-04-24T10:48:37;5.80;;;1.63;;
47669;SDS011;33408;52.062;11.722;2023-04-24T10:51:10;1.98;;;1.00;;
47669;SDS011;33408;52.062;11.722;2023-04-24T10:53:38;2.35;;;0.98;;
47669;SDS011;33408;52.062;11.722;2023-04-24T10:56:05;2.30;;;1.08;;
47669;SDS011;33408;52.062;11.722;2023-04-24T10:58:36;3.40;;;1.30;;
47669;SDS011;33408;52.062;11.722;2023-04-24T11:01:05;2.78;;;1.27;;
47669;SDS011;33408;52.062;11.722;2023-04-24T11:03:32;3.22;;;1.30;;
47669;SDS011;33408;52.062;11.722;2023-04-24T11:06:02;2.47;;;1.20;;
47669;SDS011;33408;52.062;11.722;2023-04-24T11:08:31;3.08;;;1.30;;
47669;SDS011;33408;52.062;11.722;2023-04-24T11:11:03;3.30;;;1.30;;
47669;SDS011;33408;52.062;11.722;2023-04-24T11:16:31;2.83;;;1.02;;
47669;SDS011;33408;52.062;11.722;2023-04-24T11:19:00;4.47;;;1.45;;
47669;SDS011;33408;52.062;11.722;2023-04-24T11:21:32;1.52;;;0.90;;
47669;SDS011;33408;52.062;11.722;2023-04-24T11:26:54;3.90;;;1.42;;
47669;SDS011;33408;52.062;11.722;2023-04-24T11:29:22;5.38;;;1.30;;
47669;SDS011;33408;52.062;11.722;2023-04-24T11:31:49;1.55;;;0.90;;
47669;SDS011;33408;52.062;11.722;2023-04-24T11:34:17;4.07;;;1.08;;
47669;SDS011;33408;52.062;11.722;2023-04-24T11:36:45;2.92;;;0.98;;
47669;SDS011;33408;52.062;11.722;2023-04-24T11:39:13;2.30;;;1.00;;
47669;SDS011;33408;52.062;11.722;2023-04-24T11:41:40;3.38;;;1.10;;
47669;SDS011;33408;52.062;11.722;2023-04-24T11:44:07;5.18;;;1.55;;
47669;SDS011;33408;52.062;11.722;2023-04-24T11:46:34;9.10;;;1.45;;
47669;SDS011;33408;52.062;11.722;2023-04-24T11:49:03;2.40;;;1.27;;
47669;SDS011;33408;52.062;11.722;2023-04-24T11:51:30;2.50;;;1.10;;
47669;SDS011;33408;52.062;11.722;2023-04-24T11:53:58;1.73;;;1.02;;
47669;SDS011;33408;52.062;11.722;2023-04-24T11:56:25;5.53;;;1.65;;
47669;SDS011;33408;52.062;11.722;2023-04-24T11:58:51;3.47;;;1.42;;
47669;SDS011;33408;52.062;11.722;2023-04-24T12:01:18;4.55;;;1.65;;
47669;SDS011;33408;52.062;11.722;2023-04-24T12:03:47;3.63;;;1.40;;
47669;SDS011;33408;52.062;11.722;2023-04-24T12:06:15;3.75;;;1.13;;
47669;SDS011;33408;52.062;11.722;2023-04-24T12:08:41;2.42;;;1.38;;
47669;SDS011;33408;52.062;11.722;2023-04-24T12:11:09;2.53;;;1.15;;
47669;SDS011;33408;52.062;11.722;2023-04-24T12:13:36;2.92;;;1.20;;
47669;SDS011;33408;52.062;11.722;2023-04-24T12:16:06;1.98;;;1.05;;
47669;SDS011;33408;52.062;11.722;2023-04-24T12:18:33;3.50;;;1.20;;
47669;SDS011;33408;52.062;11.722;2023-04-24T12:21:16;3.88;;;1.27;;
47669;SDS011;33408;52.062;11.722;2023-04-24T12:23:43;4.60;;;1.50;;
47669;SDS011;33408;52.062;11.722;2023-04-24T12:26:12;3.58;;;1.40;;
47669;SDS011;33408;52.062;11.722;2023-04-24T12:28:42;1.38;;;0.98;;
47669;SDS011;33408;52.062;11.722;2023-04-24T12:31:09;5.25;;;1.40;;
47669;SDS011;33408;52.062;11.722;2023-04-24T12:33:35;4.10;;;1.50;;
47669;SDS011;33408;52.062;11.722;2023-04-24T12:36:03;2.63;;;1.40;;
47669;SDS011;33408;52.062;11.722;2023-04-24T12:38:31;3.40;;;1.38;;
47669;SDS011;33408;52.062;11.722;2023-04-24T12:41:05;2.25;;;1.33;;
47669;SDS011;33408;52.062;11.722;2023-04-24T12:43:34;3.05;;;1.50;;
47669;SDS011;33408;52.062;11.722;2023-04-24T12:46:01;2.55;;;1.30;;
47669;SDS011;33408;52.062;11.722;2023-04-24T12:48:28;4.60;;;1.50;;
47669;SDS011;33408;52.062;11.722;2023-04-24T12:50:56;3.90;;;1.40;;
47669;SDS011;33408;52.062;11.722;2023-04-24T12:53:26;3.28;;;1.35;;
47669;SDS011;33408;52.062;11.722;2023-04-24T12:55:54;1.85;;;1.15;;
47669;SDS011;33408;52.062;11.722;2023-04-24T12:58:21;5.22;;;1.10;;
47669;SDS011;33408;52.062;11.722;2023-04-24T13:00:49;3.63;;;1.40;;
47669;SDS011;33408;52.062;11.722;2023-04-24T13:03:15;2.53;;;1.15;;
47669;SDS011;33408;52.062;11.722;2023-04-24T13:05:42;2.75;;;1.27;;
47669;SDS011;33408;52.062;11.722;2023-04-24T13:08:09;3.33;;;1.40;;
47669;SDS011;33408;52.062;11.722;2023-04-24T13:10:37;2.15;;;1.00;;
47669;SDS011;33408;52.062;11.722;2023-04-24T13:13:05;4.60;;;1.17;;
47669;SDS011;33408;52.062;11.722;2023-04-24T13:15:32;7.45;;;1.40;;
47669;SDS011;33408;52.062;11.722;2023-04-24T13:18:00;5.25;;;1.30;;
47669;SDS011;33408;52.062;11.722;2023-04-24T13:20:27;2.92;;;1.27;;
47669;SDS011;33408;52.062;11.722;2023-04-24T13:22:54;4.40;;;1.52;;
47669;SDS011;33408;52.062;11.722;2023-04-24T13:25:20;2.88;;;1.40;;
47669;SDS011;33408;52.062;11.722;2023-04-24T13:27:48;2.00;;;1.00;;
47669;SDS011;33408;52.062;11.722;2023-04-24T13:30:15;4.90;;;1.50;;
47669;SDS011;33408;52.062;11.722;2023-04-24T13:32:42;3.50;;;1.00;;
47669;SDS011;33408;52.062;11.722;2023-04-24T13:35:10;2.97;;;0.93;;
47669;SDS011;33408;52.062;11.722;2023-04-24T13:37:37;2.13;;;1.20;;
47669;SDS011;33408;52.062;11.722;2023-04-24T13:40:03;2.55;;;1.10;;
47669;SDS011;33408;52.062;11.722;2023-04-24T13:42:32;2.67;;;1.15;;
47669;SDS011;33408;52.062;11.722;2023-04-24T13:44:58;1.40;;;0.88;;
47669;SDS011;33408;52.062;11.722;2023-04-24T13:47:25;3.60;;;1.08;;
47669;SDS011;33408;52.062;11.722;2023-04-24T13:49:52;2.63;;;1.05;;
47669;SDS011;33408;52.062;11.722;2023-04-24T13:52:20;3.88;;;1.02;;
47669;SDS011;33408;52.062;11.722;2023-04-24T13:54:47;2.83;;;1.52;;
47669;SDS011;33408;52.062;11.722;2023-04-24T13:57:14;4.47;;;1.27;;
47669;SDS011;33408;52.062;11.722;2023-04-24T13:59:41;3.45;;;1.23;;
47669;SDS011;33408;52.062;11.722;2023-04-24T14:02:08;2.10;;;1.20;;
47669;SDS011;33408;52.062;11.722;2023-04-24T14:04:34;3.20;;;1.20;;
47669;SDS011;33408;52.062;11.722;2023-04-24T14:07:01;2.13;;;1.20;;
47669;SDS011;33408;52.062;11.722;2023-04-24T14:09:29;3.35;;;1.42;;
47669;SDS011;33408;52.062;11.722;2023-04-24T14:11:55;3.33;;;1.60;;
47669;SDS011;33408;52.062;11.722;2023-04-24T14:14:22;4.82;;;1.92;;
47669;SDS011;33408;52.062;11.722;2023-04-24T14:16:49;8.13;;;1.92;;
47669;SDS011;33408;52.062;11.722;2023-04-24T14:19:16;6.93;;;1.50;;
47669;SDS011;33408;52.062;11.722;2023-04-24T14:21:42;4.15;;;1.50;;
47669;SDS011;33408;52.062;11.722;2023-04-24T14:24:09;4.60;;;1.45;;
47669;SDS011;33408;52.062;11.722;2023-04-24T14:26:37;2.10;;;1.25;;
47669;SDS011;33408;52.062;11.722;2023-04-24T14:29:03;2.00;;;0.90;;
47669;SDS011;33408;52.062;11.722;2023-04-24T14:31:30;2.10;;;0.60;;
47669;SDS011;33408;52.062;11.722;2023-04-24T14:33:57;0.52;;;0.40;;
47669;SDS011;33408;52.062;11.722;2023-04-24T14:36:24;1.25;;;0.57;;
47669;SDS011;33408;52.062;11.722;2023-04-24T14:38:50;1.83;;;0.55;;
47669;SDS011;33408;52.062;11.722;2023-04-24T14:41:17;1.42;;;0.63;;